Soddy Daisy, Tennessee
Current Conditions -  °F | °C
As of 9:53 PM on Saturday 25 Oct 2014 (Local Time) from KCHA Reporting Station
Scattered Clouds Scattered Clouds  
Wind Chill: 64°   Ceiling: Unl
Heat Index: 64°   Visibility: 10mi
Dew Point: 57°   Wind: 0mph
Humidity: 78%   Direction: NA
Pressure: 30.04"   Gusts: NA
Location:  35.24°N, 85.19°W
Report Text: KCHA 260153Z 00000KT 10SM SCT043 18/14 A3004 RMK AO2 SLP168 T01780139
Loading
Personal Weather Stations






























Interactive Weather Map
Tropical Storm Tracking
New forecast layout! Learn more

10-Day Weather Forecast

Advertisements
Track Severe Weather on mobile